sensor_id;sensor_type;location;lat;lon;timestamp;temperature;humidity
51982;DHT22;37998;53.416;6.730;2022-07-18T00:01:46;18.50;99.90
51982;DHT22;37998;53.416;6.730;2022-07-18T00:04:12;18.40;99.90
51982;DHT22;37998;53.416;6.730;2022-07-18T00:06:38;18.30;99.90
51982;DHT22;37998;53.416;6.730;2022-07-18T00:09:03;18.30;99.90
51982;DHT22;37998;53.416;6.730;2022-07-18T00:11:29;18.20;99.90
51982;DHT22;37998;53.416;6.730;2022-07-18T00:13:55;18.20;99.90
51982;DHT22;37998;53.416;6.730;2022-07-18T00:16:22;18.20;99.90
51982;DHT22;37998;53.416;6.730;2022-07-18T00:18:51;18.10;99.90
51982;DHT22;37998;53.416;6.730;2022-07-18T00:21:16;18.10;99.90
51982;DHT22;37998;53.416;6.730;2022-07-18T00:23:42;18.20;99.90
51982;DHT22;37998;53.416;6.730;2022-07-18T00:26:08;18.10;99.90
51982;DHT22;37998;53.416;6.730;2022-07-18T00:28:33;18.10;99.90
51982;DHT22;37998;53.416;6.730;2022-07-18T00:30:59;18.10;99.90
51982;DHT22;37998;53.416;6.730;2022-07-18T00:33:25;18.10;99.90
51982;DHT22;37998;53.416;6.730;2022-07-18T00:35:51;18.10;99.90
51982;DHT22;37998;53.416;6.730;2022-07-18T00:38:16;18.10;99.90
51982;DHT22;37998;53.416;6.730;2022-07-18T00:40:42;18.10;99.90
51982;DHT22;37998;53.416;6.730;2022-07-18T00:43:08;18.10;99.90
51982;DHT22;37998;53.416;6.730;2022-07-18T00:45:33;18.10;99.90
51982;DHT22;37998;53.416;6.730;2022-07-18T00:48:05;18.00;99.90
51982;DHT22;37998;53.416;6.730;2022-07-18T00:50:31;18.00;99.90
51982;DHT22;37998;53.416;6.730;2022-07-18T00:52:57;18.00;99.90
51982;DHT22;37998;53.416;6.730;2022-07-18T00:55:23;18.10;99.90
51982;DHT22;37998;53.416;6.730;2022-07-18T00:57:48;18.00;99.90
51982;DHT22;37998;53.416;6.730;2022-07-18T01:00:14;18.00;99.90
51982;DHT22;37998;53.416;6.730;2022-07-18T01:02:59;17.80;99.90
51982;DHT22;37998;53.416;6.730;2022-07-18T01:05:25;17.90;99.90
51982;DHT22;37998;53.416;6.730;2022-07-18T01:07:51;17.90;99.90
51982;DHT22;37998;53.416;6.730;2022-07-18T01:10:17;17.90;99.90
51982;DHT22;37998;53.416;6.730;2022-07-18T01:12:44;17.90;99.90
51982;DHT22;37998;53.416;6.730;2022-07-18T01:15:10;17.80;99.90
51982;DHT22;37998;53.416;6.730;2022-07-18T01:17:36;17.80;99.90
51982;DHT22;37998;53.416;6.730;2022-07-18T01:20:03;17.80;99.90
51982;DHT22;37998;53.416;6.730;2022-07-18T01:22:29;17.80;99.90
51982;DHT22;37998;53.416;6.730;2022-07-18T01:24:55;17.70;99.90
51982;DHT22;37998;53.416;6.730;2022-07-18T01:27:21;17.80;99.90
51982;DHT22;37998;53.416;6.730;2022-07-18T01:29:48;17.80;99.90
51982;DHT22;37998;53.416;6.730;2022-07-18T01:32:15;17.70;99.90
51982;DHT22;37998;53.416;6.730;2022-07-18T01:34:41;18.90;99.90
51982;DHT22;37998;53.416;6.730;2022-07-18T01:37:07;17.80;99.90
51982;DHT22;37998;53.416;6.730;2022-07-18T01:39:33;17.80;99.90
51982;DHT22;37998;53.416;6.730;2022-07-18T01:42:04;17.70;99.90
51982;DHT22;37998;53.416;6.730;2022-07-18T01:44:31;17.70;99.90
51982;DHT22;37998;53.416;6.730;2022-07-18T01:46:57;17.70;99.90
51982;DHT22;37998;53.416;6.730;2022-07-18T01:49:23;17.60;99.90
51982;DHT22;37998;53.416;6.730;2022-07-18T01:51:51;17.60;99.90
51982;DHT22;37998;53.416;6.730;2022-07-18T01:54:22;17.60;99.90
51982;DHT22;37998;53.416;6.730;2022-07-18T01:56:48;17.60;99.90
51982;DHT22;37998;53.416;6.730;2022-07-18T01:59:14;17.60;99.90
51982;DHT22;37998;53.416;6.730;2022-07-18T02:01:40;17.70;99.90
51982;DHT22;37998;53.416;6.730;2022-07-18T02:04:05;17.60;99.90
51982;DHT22;37998;53.416;6.730;2022-07-18T02:06:31;17.70;99.90
51982;DHT22;37998;53.416;6.730;2022-07-18T02:08:57;17.60;99.90
51982;DHT22;37998;53.416;6.730;2022-07-18T02:11:23;17.50;99.90
51982;DHT22;37998;53.416;6.730;2022-07-18T02:13:48;17.50;99.90
51982;DHT22;37998;53.416;6.730;2022-07-18T02:16:14;17.40;99.90
51982;DHT22;37998;53.416;6.730;2022-07-18T02:18:40;17.40;99.90
51982;DHT22;37998;53.416;6.730;2022-07-18T02:21:05;17.30;99.90
51982;DHT22;37998;53.416;6.730;2022-07-18T02:23:33;17.30;99.90
51982;DHT22;37998;53.416;6.730;2022-07-18T02:25:59;17.40;99.90
51982;DHT22;37998;53.416;6.730;2022-07-18T02:28:25;17.40;99.90
51982;DHT22;37998;53.416;6.730;2022-07-18T02:30:50;17.30;99.90
51982;DHT22;37998;53.416;6.730;2022-07-18T02:33:16;17.30;99.90
51982;DHT22;37998;53.416;6.730;2022-07-18T02:35:42;17.30;99.90
51982;DHT22;37998;53.416;6.730;2022-07-18T02:38:08;17.30;99.90
51982;DHT22;37998;53.416;6.730;2022-07-18T02:40:34;17.20;99.90
51982;DHT22;37998;53.416;6.730;2022-07-18T02:43:00;17.20;99.90
51982;DHT22;37998;53.416;6.730;2022-07-18T02:45:26;17.20;99.90
51982;DHT22;37998;53.416;6.730;2022-07-18T02:47:52;17.10;99.90
51982;DHT22;37998;53.416;6.730;2022-07-18T02:50:18;17.10;99.90
51982;DHT22;37998;53.416;6.730;2022-07-18T02:52:44;17.10;99.90
51982;DHT22;37998;53.416;6.730;2022-07-18T02:55:11;17.10;99.90
51982;DHT22;37998;53.416;6.730;2022-07-18T02:57:37;17.10;99.90
51982;DHT22;37998;53.416;6.730;2022-07-18T03:00:11;17.10;99.90
51982;DHT22;37998;53.416;6.730;2022-07-18T03:02:38;17.10;99.90
51982;DHT22;37998;53.416;6.730;2022-07-18T03:05:04;17.10;99.90
51982;DHT22;37998;53.416;6.730;2022-07-18T03:07:31;17.10;99.90
51982;DHT22;37998;53.416;6.730;2022-07-18T03:09:56;17.10;99.90
51982;DHT22;37998;53.416;6.730;2022-07-18T03:12:22;17.10;99.90
51982;DHT22;37998;53.416;6.730;2022-07-18T03:14:48;17.00;99.90
51982;DHT22;37998;53.416;6.730;2022-07-18T03:17:13;16.90;99.90
51982;DHT22;37998;53.416;6.730;2022-07-18T03:19:39;16.90;99.90
51982;DHT22;37998;53.416;6.730;2022-07-18T03:22:05;16.90;99.90
51982;DHT22;37998;53.416;6.730;2022-07-18T03:24:31;16.80;99.90
51982;DHT22;37998;53.416;6.730;2022-07-18T03:26:56;16.80;99.90
51982;DHT22;37998;53.416;6.730;2022-07-18T03:29:22;16.90;99.90
51982;DHT22;37998;53.416;6.730;2022-07-18T03:31:48;16.80;99.90
51982;DHT22;37998;53.416;6.730;2022-07-18T03:34:14;16.80;99.90
51982;DHT22;37998;53.416;6.730;2022-07-18T03:36:40;16.90;99.90
51982;DHT22;37998;53.416;6.730;2022-07-18T03:39:09;16.70;99.90
51982;DHT22;37998;53.416;6.730;2022-07-18T03:41:35;16.80;99.90
51982;DHT22;37998;53.416;6.730;2022-07-18T03:44:02;16.70;99.90
51982;DHT22;37998;53.416;6.730;2022-07-18T03:46:28;16.70;99.90
51982;DHT22;37998;53.416;6.730;2022-07-18T03:48:53;16.70;99.90
51982;DHT22;37998;53.416;6.730;2022-07-18T03:51:19;16.70;99.90
51982;DHT22;37998;53.416;6.730;2022-07-18T03:53:45;16.70;99.90
51982;DHT22;37998;53.416;6.730;2022-07-18T03:56:10;16.70;99.90
51982;DHT22;37998;53.416;6.730;2022-07-18T03:58:36;17.00;99.90
51982;DHT22;37998;53.416;6.730;2022-07-18T04:01:03;16.70;99.90
51982;DHT22;37998;53.416;6.730;2022-07-18T04:03:29;16.70;99.90
51982;DHT22;37998;53.416;6.730;2022-07-18T04:05:54;16.70;99.90
51982;DHT22;37998;53.416;6.730;2022-07-18T04:08:20;16.70;99.90
51982;DHT22;37998;53.416;6.730;2022-07-18T04:10:46;16.90;99.90
51982;DHT22;37998;53.416;6.730;2022-07-18T04:13:12;16.80;99.90
51982;DHT22;37998;53.416;6.730;2022-07-18T04:15:38;16.70;99.90
51982;DHT22;37998;53.416;6.730;2022-07-18T04:18:05;16.70;99.90
51982;DHT22;37998;53.416;6.730;2022-07-18T04:20:31;16.70;99.90
51982;DHT22;37998;53.416;6.730;2022-07-18T04:23:00;16.60;99.90
51982;DHT22;37998;53.416;6.730;2022-07-18T04:25:29;16.60;99.90
51982;DHT22;37998;53.416;6.730;2022-07-18T04:27:58;16.60;99.90
51982;DHT22;37998;53.416;6.730;2022-07-18T04:30:25;16.60;99.90
51982;DHT22;37998;53.416;6.730;2022-07-18T04:32:55;16.70;99.90
51982;DHT22;37998;53.416;6.730;2022-07-18T04:35:22;16.80;99.90
51982;DHT22;37998;53.416;6.730;2022-07-18T04:37:48;16.80;99.90
51982;DHT22;37998;53.416;6.730;2022-07-18T04:40:14;16.80;99.90
51982;DHT22;37998;53.416;6.730;2022-07-18T04:42:40;16.80;99.90
51982;DHT22;37998;53.416;6.730;2022-07-18T04:45:06;16.80;99.90
51982;DHT22;37998;53.416;6.730;2022-07-18T04:47:33;16.90;99.90
51982;DHT22;37998;53.416;6.730;2022-07-18T04:49:59;16.90;99.90
51982;DHT22;37998;53.416;6.730;2022-07-18T04:52:25;16.90;99.90
51982;DHT22;37998;53.416;6.730;2022-07-18T04:54:50;16.90;99.90
51982;DHT22;37998;53.416;6.730;2022-07-18T04:57:17;17.00;99.90
51982;DHT22;37998;53.416;6.730;2022-07-18T04:59:44;17.00;99.90
51982;DHT22;37998;53.416;6.730;2022-07-18T05:02:10;17.00;99.90
51982;DHT22;37998;53.416;6.730;2022-07-18T05:04:36;17.10;99.90
51982;DHT22;37998;53.416;6.730;2022-07-18T05:07:03;17.00;99.90
51982;DHT22;37998;53.416;6.730;2022-07-18T05:09:28;17.00;99.90
51982;DHT22;37998;53.416;6.730;2022-07-18T05:11:54;17.00;99.90
51982;DHT22;37998;53.416;6.730;2022-07-18T05:14:20;17.00;99.90
51982;DHT22;37998;53.416;6.730;2022-07-18T05:16:47;17.10;99.90
51982;DHT22;37998;53.416;6.730;2022-07-18T05:19:13;17.10;99.90
51982;DHT22;37998;53.416;6.730;2022-07-18T05:21:40;17.20;99.90
51982;DHT22;37998;53.416;6.730;2022-07-18T05:24:06;17.20;99.90
51982;DHT22;37998;53.416;6.730;2022-07-18T05:26:32;17.20;99.90
51982;DHT22;37998;53.416;6.730;2022-07-18T05:28:58;17.30;99.90
51982;DHT22;37998;53.416;6.730;2022-07-18T05:31:24;17.30;99.90
51982;DHT22;37998;53.416;6.730;2022-07-18T05:33:49;17.30;99.90
51982;DHT22;37998;53.416;6.730;2022-07-18T05:36:15;17.40;99.90
51982;DHT22;37998;53.416;6.730;2022-07-18T05:38:41;17.40;99.90
51982;DHT22;37998;53.416;6.730;2022-07-18T05:41:06;17.40;99.90
51982;DHT22;37998;53.416;6.730;2022-07-18T05:43:32;17.50;99.90
51982;DHT22;37998;53.416;6.730;2022-07-18T05:45:58;17.50;99.90
51982;DHT22;37998;53.416;6.730;2022-07-18T05:48:23;17.40;99.90
51982;DHT22;37998;53.416;6.730;2022-07-18T05:50:49;17.60;99.90
51982;DHT22;37998;53.416;6.730;2022-07-18T05:53:14;17.60;99.90
51982;DHT22;37998;53.416;6.730;2022-07-18T05:55:40;17.60;99.90
51982;DHT22;37998;53.416;6.730;2022-07-18T05:58:06;17.80;99.90
51982;DHT22;37998;53.416;6.730;2022-07-18T06:00:31;17.80;99.90
51982;DHT22;37998;53.416;6.730;2022-07-18T06:02:57;17.70;99.90
51982;DHT22;37998;53.416;6.730;2022-07-18T06:05:23;17.80;99.90
51982;DHT22;37998;53.416;6.730;2022-07-18T06:07:49;17.90;99.90
51982;DHT22;37998;53.416;6.730;2022-07-18T06:10:14;17.90;99.90
51982;DHT22;37998;53.416;6.730;2022-07-18T06:12:40;17.90;99.90
51982;DHT22;37998;53.416;6.730;2022-07-18T06:15:06;18.00;99.90
51982;DHT22;37998;53.416;6.730;2022-07-18T06:17:33;18.10;99.90
51982;DHT22;37998;53.416;6.730;2022-07-18T06:19:58;18.10;99.90
51982;DHT22;37998;53.416;6.730;2022-07-18T06:22:24;18.20;99.90
51982;DHT22;37998;53.416;6.730;2022-07-18T06:24:51;18.30;99.90
51982;DHT22;37998;53.416;6.730;2022-07-18T06:27:17;18.40;99.90
51982;DHT22;37998;53.416;6.730;2022-07-18T06:29:43;18.50;99.90
51982;DHT22;37998;53.416;6.730;2022-07-18T06:32:08;18.70;99.90
51982;DHT22;37998;53.416;6.730;2022-07-18T06:34:34;18.80;99.90
51982;DHT22;37998;53.416;6.730;2022-07-18T06:36:59;18.90;99.90
51982;DHT22;37998;53.416;6.730;2022-07-18T06:39:25;19.00;99.90
51982;DHT22;37998;53.416;6.730;2022-07-18T06:41:51;19.10;99.90
51982;DHT22;37998;53.416;6.730;2022-07-18T06:44:17;19.10;99.90
51982;DHT22;37998;53.416;6.730;2022-07-18T06:46:42;19.10;99.90
51982;DHT22;37998;53.416;6.730;2022-07-18T06:49:08;19.20;99.90
51982;DHT22;37998;53.416;6.730;2022-07-18T06:51:34;19.20;99.90
51982;DHT22;37998;53.416;6.730;2022-07-18T06:54:00;19.30;99.90
51982;DHT22;37998;53.416;6.730;2022-07-18T06:56:26;19.30;99.90
51982;DHT22;37998;53.416;6.730;2022-07-18T06:58:52;19.60;99.90
51982;DHT22;37998;53.416;6.730;2022-07-18T07:01:19;19.70;99.90
51982;DHT22;37998;53.416;6.730;2022-07-18T07:03:45;19.70;99.90
51982;DHT22;37998;53.416;6.730;2022-07-18T07:06:11;19.80;99.90
51982;DHT22;37998;53.416;6.730;2022-07-18T07:08:37;19.80;99.90
51982;DHT22;37998;53.416;6.730;2022-07-18T07:11:02;19.90;99.90
51982;DHT22;37998;53.416;6.730;2022-07-18T07:13:28;20.00;99.90
51982;DHT22;37998;53.416;6.730;2022-07-18T07:15:54;20.10;99.90
51982;DHT22;37998;53.416;6.730;2022-07-18T07:18:19;20.30;99.90
51982;DHT22;37998;53.416;6.730;2022-07-18T07:20:45;20.50;99.90
51982;DHT22;37998;53.416;6.730;2022-07-18T07:23:11;20.60;99.90
51982;DHT22;37998;53.416;6.730;2022-07-18T07:25:37;20.80;99.80
51982;DHT22;37998;53.416;6.730;2022-07-18T07:28:04;21.00;99.40
51982;DHT22;37998;53.416;6.730;2022-07-18T07:30:30;21.20;98.70
51982;DHT22;37998;53.416;6.730;2022-07-18T07:32:56;21.40;98.30
51982;DHT22;37998;53.416;6.730;2022-07-18T07:35:22;21.60;98.00
51982;DHT22;37998;53.416;6.730;2022-07-18T07:37:54;21.80;96.80
51982;DHT22;37998;53.416;6.730;2022-07-18T07:40:21;21.90;96.10
51982;DHT22;37998;53.416;6.730;2022-07-18T07:42:47;22.00;95.50
51982;DHT22;37998;53.416;6.730;2022-07-18T07:45:13;22.10;94.50
51982;DHT22;37998;53.416;6.730;2022-07-18T07:47:39;22.10;94.10
51982;DHT22;37998;53.416;6.730;2022-07-18T07:50:07;22.00;93.60
51982;DHT22;37998;53.416;6.730;2022-07-18T07:52:33;22.20;93.10
51982;DHT22;37998;53.416;6.730;2022-07-18T07:54:58;22.20;92.90
51982;DHT22;37998;53.416;6.730;2022-07-18T07:57:24;22.30;93.10
51982;DHT22;37998;53.416;6.730;2022-07-18T07:59:51;22.40;93.30
51982;DHT22;37998;53.416;6.730;2022-07-18T08:02:17;22.40;93.60
51982;DHT22;37998;53.416;6.730;2022-07-18T08:04:43;22.60;93.20
51982;DHT22;37998;53.416;6.730;2022-07-18T08:07:09;22.70;92.70
51982;DHT22;37998;53.416;6.730;2022-07-18T08:09:35;22.70;91.50
51982;DHT22;37998;53.416;6.730;2022-07-18T08:12:01;22.70;91.70
51982;DHT22;37998;53.416;6.730;2022-07-18T08:14:26;23.60;91.80
51982;DHT22;37998;53.416;6.730;2022-07-18T08:16:52;22.90;91.40
51982;DHT22;37998;53.416;6.730;2022-07-18T08:19:18;23.20;90.70
51982;DHT22;37998;53.416;6.730;2022-07-18T08:21:43;23.40;90.70
51982;DHT22;37998;53.416;6.730;2022-07-18T08:24:09;23.50;89.30
51982;DHT22;37998;53.416;6.730;2022-07-18T08:26:34;23.70;89.10
51982;DHT22;37998;53.416;6.730;2022-07-18T08:29:07;23.80;88.10
51982;DHT22;37998;53.416;6.730;2022-07-18T08:31:33;23.90;86.30
51982;DHT22;37998;53.416;6.730;2022-07-18T08:33:59;23.80;84.70
51982;DHT22;37998;53.416;6.730;2022-07-18T08:36:25;23.90;85.80
51982;DHT22;37998;53.416;6.730;2022-07-18T08:38:52;23.90;84.80
51982;DHT22;37998;53.416;6.730;2022-07-18T08:41:18;24.00;83.90
51982;DHT22;37998;53.416;6.730;2022-07-18T08:43:44;24.00;81.90
51982;DHT22;37998;53.416;6.730;2022-07-18T08:46:12;23.90;81.50
51982;DHT22;37998;53.416;6.730;2022-07-18T08:48:38;23.90;79.80
51982;DHT22;37998;53.416;6.730;2022-07-18T08:51:05;23.90;79.50
51982;DHT22;37998;53.416;6.730;2022-07-18T08:53:31;23.80;78.30
51982;DHT22;37998;53.416;6.730;2022-07-18T08:55:59;23.80;78.60
51982;DHT22;37998;53.416;6.730;2022-07-18T08:58:25;23.80;78.80
51982;DHT22;37998;53.416;6.730;2022-07-18T09:00:51;23.80;79.20
51982;DHT22;37998;53.416;6.730;2022-07-18T09:03:17;23.70;79.80
51982;DHT22;37998;53.416;6.730;2022-07-18T09:05:42;23.90;80.10
51982;DHT22;37998;53.416;6.730;2022-07-18T09:08:10;23.90;80.30
51982;DHT22;37998;53.416;6.730;2022-07-18T09:10:42;23.90;80.80
51982;DHT22;37998;53.416;6.730;2022-07-18T09:13:12;24.00;80.70
51982;DHT22;37998;53.416;6.730;2022-07-18T09:15:58;24.10;80.60
51982;DHT22;37998;53.416;6.730;2022-07-18T09:18:33;24.20;80.90
51982;DHT22;37998;53.416;6.730;2022-07-18T09:21:12;24.20;80.80
51982;DHT22;37998;53.416;6.730;2022-07-18T09:23:41;24.30;80.60
51982;DHT22;37998;53.416;6.730;2022-07-18T09:26:08;24.30;80.70
51982;DHT22;37998;53.416;6.730;2022-07-18T09:28:51;24.30;80.50
51982;DHT22;37998;53.416;6.730;2022-07-18T09:31:23;24.40;80.50
51982;DHT22;37998;53.416;6.730;2022-07-18T09:33:54;24.50;80.70
51982;DHT22;37998;53.416;6.730;2022-07-18T09:36:20;24.70;80.30
51982;DHT22;37998;53.416;6.730;2022-07-18T09:38:46;24.80;80.00
51982;DHT22;37998;53.416;6.730;2022-07-18T09:41:11;25.00;79.50
51982;DHT22;37998;53.416;6.730;2022-07-18T09:43:38;25.10;78.70
51982;DHT22;37998;53.416;6.730;2022-07-18T09:46:04;25.20;78.20
51982;DHT22;37998;53.416;6.730;2022-07-18T09:48:30;25.30;75.70
51982;DHT22;37998;53.416;6.730;2022-07-18T09:50:58;25.50;75.20
51982;DHT22;37998;53.416;6.730;2022-07-18T09:56:06;25.60;74.90
51982;DHT22;37998;53.416;6.730;2022-07-18T09:58:52;25.70;74.40
51982;DHT22;37998;53.416;6.730;2022-07-18T10:01:18;25.80;72.20
51982;DHT22;37998;53.416;6.730;2022-07-18T10:03:44;25.80;71.10
51982;DHT22;37998;53.416;6.730;2022-07-18T10:06:10;25.80;70.30
51982;DHT22;37998;53.416;6.730;2022-07-18T10:08:36;25.90;69.40
51982;DHT22;37998;53.416;6.730;2022-07-18T10:11:04;26.00;69.50
51982;DHT22;37998;53.416;6.730;2022-07-18T10:13:32;26.10;68.80
51982;DHT22;37998;53.416;6.730;2022-07-18T10:15:58;26.20;67.80
51982;DHT22;37998;53.416;6.730;2022-07-18T10:18:27;26.00;66.80
51982;DHT22;37998;53.416;6.730;2022-07-18T10:26:21;26.30;67.40
51982;DHT22;37998;53.416;6.730;2022-07-18T10:33:48;26.60;65.80
51982;DHT22;37998;53.416;6.730;2022-07-18T10:36:15;26.60;65.20
51982;DHT22;37998;53.416;6.730;2022-07-18T10:39:07;26.70;65.00
51982;DHT22;37998;53.416;6.730;2022-07-18T11:00:00;27.30;65.30
51982;DHT22;37998;53.416;6.730;2022-07-18T11:02:41;27.40;63.50
51982;DHT22;37998;53.416;6.730;2022-07-18T11:21:29;28.10;56.80
51982;DHT22;37998;53.416;6.730;2022-07-18T11:24:09;28.30;57.00
51982;DHT22;37998;53.416;6.730;2022-07-18T11:26:42;28.40;56.10
51982;DHT22;37998;53.416;6.730;2022-07-18T11:29:10;28.50;57.50
51982;DHT22;37998;53.416;6.730;2022-07-18T11:34:14;28.70;55.90
51982;DHT22;37998;53.416;6.730;2022-07-18T11:36:42;28.80;57.50
51982;DHT22;37998;53.416;6.730;2022-07-18T11:39:09;28.80;55.80
51982;DHT22;37998;53.416;6.730;2022-07-18T11:41:38;28.80;54.90
51982;DHT22;37998;53.416;6.730;2022-07-18T11:44:15;28.70;54.20
51982;DHT22;37998;53.416;6.730;2022-07-18T11:46:42;28.70;55.00
51982;DHT22;37998;53.416;6.730;2022-07-18T11:49:08;28.70;55.10
51982;DHT22;37998;53.416;6.730;2022-07-18T11:51:41;28.80;54.60
51982;DHT22;37998;53.416;6.730;2022-07-18T11:54:08;28.60;52.80
51982;DHT22;37998;53.416;6.730;2022-07-18T11:56:48;28.50;54.60
51982;DHT22;37998;53.416;6.730;2022-07-18T11:59:15;28.60;53.50
51982;DHT22;37998;53.416;6.730;2022-07-18T12:01:41;28.60;53.80
51982;DHT22;37998;53.416;6.730;2022-07-18T12:04:18;28.60;54.60
51982;DHT22;37998;53.416;6.730;2022-07-18T12:06:45;28.70;55.30
51982;DHT22;37998;53.416;6.730;2022-07-18T12:09:10;28.70;55.70
51982;DHT22;37998;53.416;6.730;2022-07-18T12:11:38;28.90;55.30
51982;DHT22;37998;53.416;6.730;2022-07-18T12:16:49;29.20;54.70
51982;DHT22;37998;53.416;6.730;2022-07-18T12:19:22;29.40;53.30
51982;DHT22;37998;53.416;6.730;2022-07-18T12:22:09;29.50;53.20
51982;DHT22;37998;53.416;6.730;2022-07-18T12:27:09;29.60;53.70
51982;DHT22;37998;53.416;6.730;2022-07-18T12:32:26;29.80;51.60
51982;DHT22;37998;53.416;6.730;2022-07-18T12:34:56;29.90;52.90
51982;DHT22;37998;53.416;6.730;2022-07-18T12:37:24;29.90;52.00
51982;DHT22;37998;53.416;6.730;2022-07-18T12:39:56;30.00;52.00
51982;DHT22;37998;53.416;6.730;2022-07-18T12:42:34;30.00;51.10
51982;DHT22;37998;53.416;6.730;2022-07-18T12:45:00;30.00;52.80
51982;DHT22;37998;53.416;6.730;2022-07-18T12:47:26;29.90;51.80
51982;DHT22;37998;53.416;6.730;2022-07-18T12:49:52;29.90;51.90
51982;DHT22;37998;53.416;6.730;2022-07-18T12:52:19;30.00;51.00
51982;DHT22;37998;53.416;6.730;2022-07-18T12:54:46;30.10;50.60
51982;DHT22;37998;53.416;6.730;2022-07-18T12:57:12;30.10;50.60
51982;DHT22;37998;53.416;6.730;2022-07-18T12:59:37;30.30;51.60
51982;DHT22;37998;53.416;6.730;2022-07-18T13:02:03;30.30;50.30
51982;DHT22;37998;53.416;6.730;2022-07-18T13:04:29;30.30;50.50
51982;DHT22;37998;53.416;6.730;2022-07-18T13:06:56;30.40;50.90
51982;DHT22;37998;53.416;6.730;2022-07-18T13:09:22;30.50;50.00
51982;DHT22;37998;53.416;6.730;2022-07-18T13:11:48;30.60;49.30
51982;DHT22;37998;53.416;6.730;2022-07-18T13:14:14;30.70;49.00
51982;DHT22;37998;53.416;6.730;2022-07-18T13:16:42;30.80;48.50
51982;DHT22;37998;53.416;6.730;2022-07-18T13:19:09;30.90;48.60
51982;DHT22;37998;53.416;6.730;2022-07-18T13:21:34;30.90;48.40
51982;DHT22;37998;53.416;6.730;2022-07-18T13:24:00;31.00;48.70
51982;DHT22;37998;53.416;6.730;2022-07-18T13:26:25;30.90;48.60
51982;DHT22;37998;53.416;6.730;2022-07-18T13:28:51;30.70;48.80
51982;DHT22;37998;53.416;6.730;2022-07-18T13:31:17;30.70;48.50
51982;DHT22;37998;53.416;6.730;2022-07-18T13:33:42;30.70;48.70
51982;DHT22;37998;53.416;6.730;2022-07-18T13:36:08;30.70;49.60
51982;DHT22;37998;53.416;6.730;2022-07-18T13:38:34;30.70;49.20
51982;DHT22;37998;53.416;6.730;2022-07-18T13:40:59;30.80;49.30
51982;DHT22;37998;53.416;6.730;2022-07-18T13:43:25;30.80;48.60
51982;DHT22;37998;53.416;6.730;2022-07-18T13:45:50;30.80;49.00
51982;DHT22;37998;53.416;6.730;2022-07-18T13:48:16;30.90;49.80
51982;DHT22;37998;53.416;6.730;2022-07-18T13:50:42;31.10;49.30
51982;DHT22;37998;53.416;6.730;2022-07-18T13:53:07;31.20;48.80
51982;DHT22;37998;53.416;6.730;2022-07-18T13:55:33;31.10;48.60
51982;DHT22;37998;53.416;6.730;2022-07-18T13:57:59;30.90;49.40
51982;DHT22;37998;53.416;6.730;2022-07-18T14:00:24;30.70;51.40
51982;DHT22;37998;53.416;6.730;2022-07-18T14:02:50;30.30;54.30
51982;DHT22;37998;53.416;6.730;2022-07-18T14:05:16;30.00;55.80
51982;DHT22;37998;53.416;6.730;2022-07-18T14:07:42;29.60;56.30
51982;DHT22;37998;53.416;6.730;2022-07-18T14:10:09;29.30;57.50
51982;DHT22;37998;53.416;6.730;2022-07-18T14:12:34;29.10;57.40
51982;DHT22;37998;53.416;6.730;2022-07-18T14:15:00;28.90;57.00
51982;DHT22;37998;53.416;6.730;2022-07-18T14:17:26;28.70;56.90
51982;DHT22;37998;53.416;6.730;2022-07-18T14:19:51;28.70;57.10
51982;DHT22;37998;53.416;6.730;2022-07-18T14:22:17;28.80;57.50
51982;DHT22;37998;53.416;6.730;2022-07-18T14:24:42;28.80;57.80
51982;DHT22;37998;53.416;6.730;2022-07-18T14:27:08;28.80;58.10
51982;DHT22;37998;53.416;6.730;2022-07-18T14:29:33;28.80;59.00
51982;DHT22;37998;53.416;6.730;2022-07-18T14:31:59;28.70;58.70
51982;DHT22;37998;53.416;6.730;2022-07-18T14:34:25;28.60;58.80
51982;DHT22;37998;53.416;6.730;2022-07-18T14:36:50;28.40;58.90
51982;DHT22;37998;53.416;6.730;2022-07-18T14:39:16;28.20;59.20
51982;DHT22;37998;53.416;6.730;2022-07-18T14:41:42;28.00;60.70
51982;DHT22;37998;53.416;6.730;2022-07-18T14:44:07;27.70;61.70
51982;DHT22;37998;53.416;6.730;2022-07-18T14:46:33;27.50;62.40
51982;DHT22;37998;53.416;6.730;2022-07-18T14:48:58;27.30;63.00
51982;DHT22;37998;53.416;6.730;2022-07-18T14:51:24;27.10;63.80
51982;DHT22;37998;53.416;6.730;2022-07-18T14:53:50;27.00;64.10
51982;DHT22;37998;53.416;6.730;2022-07-18T14:56:15;26.90;64.80
51982;DHT22;37998;53.416;6.730;2022-07-18T14:58:41;26.80;64.10
51982;DHT22;37998;53.416;6.730;2022-07-18T15:01:06;26.70;64.30
51982;DHT22;37998;53.416;6.730;2022-07-18T15:03:32;26.70;64.40
51982;DHT22;37998;53.416;6.730;2022-07-18T15:05:58;26.70;64.70
51982;DHT22;37998;53.416;6.730;2022-07-18T15:08:23;26.70;64.80
51982;DHT22;37998;53.416;6.730;2022-07-18T15:10:49;26.80;64.50
51982;DHT22;37998;53.416;6.730;2022-07-18T15:13:15;26.70;64.20
51982;DHT22;37998;53.416;6.730;2022-07-18T15:15:40;26.70;64.40
51982;DHT22;37998;53.416;6.730;2022-07-18T15:18:06;26.70;64.10
51982;DHT22;37998;53.416;6.730;2022-07-18T15:20:31;26.70;64.20
51982;DHT22;37998;53.416;6.730;2022-07-18T15:22:57;26.70;64.40
51982;DHT22;37998;53.416;6.730;2022-07-18T15:25:23;26.70;64.70
51982;DHT22;37998;53.416;6.730;2022-07-18T15:27:49;26.70;64.80
51982;DHT22;37998;53.416;6.730;2022-07-18T15:30:14;26.80;64.90
51982;DHT22;37998;53.416;6.730;2022-07-18T15:32:40;26.90;63.80
51982;DHT22;37998;53.416;6.730;2022-07-18T15:35:06;27.00;63.20
51982;DHT22;37998;53.416;6.730;2022-07-18T15:37:32;27.00;62.30
51982;DHT22;37998;53.416;6.730;2022-07-18T15:39:58;27.00;62.20
51982;DHT22;37998;53.416;6.730;2022-07-18T15:42:23;27.00;62.10
51982;DHT22;37998;53.416;6.730;2022-07-18T15:44:49;27.00;62.10
51982;DHT22;37998;53.416;6.730;2022-07-18T15:47:15;27.00;62.00
51982;DHT22;37998;53.416;6.730;2022-07-18T15:49:40;26.80;62.20
51982;DHT22;37998;53.416;6.730;2022-07-18T15:52:06;27.00;62.80
51982;DHT22;37998;53.416;6.730;2022-07-18T15:54:33;27.00;62.20
51982;DHT22;37998;53.416;6.730;2022-07-18T15:56:59;27.10;61.90
51982;DHT22;37998;53.416;6.730;2022-07-18T15:59:25;27.30;61.90
51982;DHT22;37998;53.416;6.730;2022-07-18T16:01:51;27.30;61.10
51982;DHT22;37998;53.416;6.730;2022-07-18T16:04:18;27.30;58.80
51982;DHT22;37998;53.416;6.730;2022-07-18T16:06:44;27.30;58.80
51982;DHT22;37998;53.416;6.730;2022-07-18T16:09:10;27.20;59.80
51982;DHT22;37998;53.416;6.730;2022-07-18T16:11:37;27.30;60.40
51982;DHT22;37998;53.416;6.730;2022-07-18T16:14:09;27.30;60.30
51982;DHT22;37998;53.416;6.730;2022-07-18T16:16:36;27.30;59.80
51982;DHT22;37998;53.416;6.730;2022-07-18T16:19:05;27.30;59.70
51982;DHT22;37998;53.416;6.730;2022-07-18T16:21:31;27.10;59.40
51982;DHT22;37998;53.416;6.730;2022-07-18T16:23:57;27.00;60.10
51982;DHT22;37998;53.416;6.730;2022-07-18T16:26:22;26.90;60.70